createdAt,value
2023-03-11T05:44:58.999Z,50.54
2023-03-11T05:48:08.983Z,50.08
2023-03-11T05:51:13.424Z,50.58
2023-03-11T05:54:31.874Z,50.51
2023-03-11T05:58:06.178Z,50.95
2023-03-11T06:01:50.977Z,51.04
2023-03-11T06:05:13.844Z,51.08
2023-03-11T06:12:02.444Z,51.71
2023-03-11T06:15:08.433Z,51.18
2023-03-11T06:18:17.430Z,51.46
2023-03-11T06:21:45.176Z,51.81
2023-03-11T06:24:53.031Z,51.35
2023-03-11T06:27:57.734Z,51.04
2023-03-11T06:31:32.253Z,50.34
2023-03-11T06:35:03.773Z,50.00
2023-03-11T06:38:12.686Z,50.67
2023-03-11T06:41:27.738Z,51.14
2023-03-11T06:49:21.853Z,50.87
2023-03-11T06:56:15.466Z,50.18
2023-03-11T06:59:23.535Z,49.34
2023-03-11T07:02:42.928Z,49.71
2023-03-11T07:06:35.368Z,49.95
2023-03-11T07:47:28.651Z,52.77
2023-03-11T07:50:47.027Z,53.11
2023-03-11T08:01:59.045Z,52.95
2023-03-11T08:05:24.255Z,52.62
2023-03-11T08:12:53.088Z,52.73
2023-03-11T08:15:58.632Z,52.54
2023-03-11T08:19:20.620Z,53.22
2023-03-11T08:22:55.673Z,52.42
2023-03-11T08:26:13.577Z,52.93
2023-03-11T08:29:32.137Z,51.87
2023-03-11T08:32:52.569Z,52.07
2023-03-11T08:39:16.751Z,51.23
2023-03-11T08:42:22.848Z,51.80
2023-03-11T08:45:26.916Z,52.10
2023-03-11T08:48:40.474Z,50.68
2023-03-11T08:51:44.046Z,51.25
2023-03-11T08:54:48.197Z,52.33
2023-03-11T08:57:52.195Z,52.35
2023-03-11T09:00:55.356Z,52.84
2023-03-11T09:03:59.263Z,52.17
2023-03-11T09:07:02.231Z,51.97
2023-03-11T09:10:06.947Z,50.90
2023-03-11T09:13:13.021Z,51.22
2023-03-11T09:16:19.469Z,52.97
2023-03-11T09:19:25.595Z,52.33
2023-03-11T09:22:29.042Z,53.00
2023-03-11T09:25:40.461Z,53.27
2023-03-11T09:28:49.086Z,53.52
2023-03-11T09:31:55.275Z,53.93
2023-03-11T09:34:59.883Z,54.58
2023-03-11T09:38:04.096Z,53.31
2023-03-11T09:41:26.081Z,53.01
2023-03-11T09:44:46.335Z,52.45
2023-03-11T09:48:30.982Z,51.99
2023-03-11T09:51:40.299Z,51.79
2023-03-11T09:54:48.240Z,53.53
2023-03-11T09:57:53.275Z,53.63
2023-03-11T10:01:01.243Z,54.66
2023-03-11T10:04:11.088Z,54.07
2023-03-11T10:07:21.860Z,54.10
2023-03-11T10:10:27.464Z,54.69
2023-03-11T10:13:39.582Z,55.02
2023-03-11T10:16:54.027Z,55.91
2023-03-11T10:20:05.171Z,55.43
2023-03-11T10:23:26.581Z,54.90
2023-03-11T10:26:45.308Z,55.39
2023-03-11T10:30:15.422Z,56.25
2023-03-11T10:33:47.952Z,56.13
2023-03-11T10:37:46.251Z,57.72
2023-03-11T10:40:55.356Z,59.66
2023-03-11T10:44:07.061Z,58.30
2023-03-11T10:47:22.097Z,58.23
2023-03-11T10:50:28.826Z,57.24
2023-03-11T10:53:45.083Z,55.70
2023-03-11T10:56:56.564Z,55.32
2023-03-11T11:00:04.866Z,55.50
2023-03-11T11:03:26.970Z,55.90
2023-03-11T11:06:48.181Z,56.63
2023-03-11T11:10:21.214Z,54.58
2023-03-11T11:13:44.347Z,53.02
2023-03-11T11:16:52.150Z,52.89
2023-03-11T11:23:38.237Z,52.84
2023-03-11T11:27:01.670Z,53.05
2023-03-11T11:30:09.604Z,52.27
2023-03-11T11:37:30.201Z,53.23
2023-03-11T11:40:44.403Z,53.33
2023-03-11T12:17:16.771Z,53.83
2023-03-11T13:05:50.607Z,50.20
2023-03-11T14:16:49.602Z,51.63
2023-03-11T14:20:16.893Z,49.05
2023-03-11T14:23:21.692Z,45.37
2023-03-11T14:26:29.413Z,45.63
2023-03-11T14:29:40.193Z,43.67
2023-03-11T14:32:46.169Z,45.59
2023-03-11T14:36:11.983Z,43.20
2023-03-11T14:39:36.428Z,44.92
2023-03-11T14:42:41.711Z,43.97
2023-03-11T14:45:47.402Z,44.56
2023-03-11T14:48:51.402Z,43.72
2023-03-11T14:52:06.149Z,45.61
2023-03-11T14:55:21.456Z,48.37
2023-03-11T14:58:35.982Z,49.52
2023-03-11T15:01:44.496Z,49.58
2023-03-11T15:04:48.651Z,49.39
2023-03-11T15:07:58.017Z,49.38
2023-03-11T15:11:05.403Z,49.81
2023-03-11T15:14:33.528Z,50.62
2023-03-11T15:17:43.876Z,50.14
2023-03-11T15:21:19.841Z,50.09
2023-03-11T15:24:27.801Z,49.60
2023-03-11T15:27:36.630Z,48.21
2023-03-11T15:30:40.925Z,47.79
2023-03-11T15:33:45.150Z,45.08
2023-03-11T15:36:48.822Z,43.96
2023-03-11T15:39:58.295Z,46.65
2023-03-11T15:43:27.960Z,46.07
2023-03-11T15:46:31.917Z,47.42
2023-03-11T15:49:37.894Z,46.88
2023-03-11T15:52:42.053Z,45.18
2023-03-11T15:55:48.300Z,44.33
2023-03-11T15:58:51.425Z,44.41
2023-03-11T16:01:55.140Z,42.60
2023-03-11T16:05:00.210Z,43.66
2023-03-11T16:08:03.929Z,42.95
2023-03-11T16:11:15.487Z,42.58
2023-03-11T16:14:32.487Z,43.90
2023-03-11T16:17:49.005Z,45.24
2023-03-11T16:20:54.555Z,47.05
2023-03-11T16:24:00.840Z,47.82
2023-03-11T16:27:08.936Z,48.22
2023-03-11T16:30:16.596Z,49.24
2023-03-11T16:33:20.540Z,50.08
2023-03-11T16:36:24.997Z,49.35
2023-03-11T16:39:29.211Z,48.09
2023-03-11T16:42:35.919Z,47.49
2023-03-11T16:45:39.600Z,47.53
2023-03-11T16:48:43.966Z,47.52
2023-03-11T16:51:50.112Z,48.66
2023-03-11T16:54:58.230Z,49.58
2023-03-11T16:58:02.320Z,50.66
2023-03-11T17:01:07.452Z,51.25
2023-03-11T17:04:14.345Z,51.72
2023-03-11T17:07:19.822Z,52.18
2023-03-11T17:10:25.761Z,52.87
2023-03-11T17:13:31.554Z,53.67
2023-03-11T17:16:36.739Z,53.89
2023-03-11T17:19:41.043Z,54.46
2023-03-11T17:22:46.522Z,55.24
2023-03-11T17:25:53.431Z,55.58
2023-03-11T17:28:57.005Z,56.10
2023-03-11T17:32:03.406Z,55.69
2023-03-11T17:35:08.488Z,55.82
2023-03-11T17:38:16.049Z,55.51
2023-03-11T17:41:21.442Z,55.54
2023-03-11T17:44:25.906Z,55.35
2023-03-11T17:47:30.281Z,55.85
2023-03-11T17:50:41.644Z,56.26
2023-03-11T17:53:47.603Z,56.48
2023-03-11T17:56:52.508Z,56.67
2023-03-11T17:59:56.723Z,56.60
2023-03-11T18:03:02.529Z,56.96
2023-03-11T18:06:08.137Z,57.02
2023-03-11T18:09:12.261Z,57.36
2023-03-11T18:12:16.634Z,57.44
2023-03-11T18:15:23.587Z,57.54
2023-03-11T18:18:29.870Z,58.00
2023-03-11T18:21:33.593Z,57.72
2023-03-11T18:24:38.335Z,57.84
2023-03-11T18:27:44.562Z,58.21
2023-03-11T18:30:50.422Z,58.39
2023-03-11T18:34:01.386Z,58.71
2023-03-11T18:37:06.445Z,59.46
2023-03-11T18:40:14.744Z,59.49
2023-03-11T18:43:20.765Z,59.58
2023-03-11T18:46:29.172Z,59.78
2023-03-11T18:49:34.122Z,60.49
2023-03-11T18:52:38.668Z,60.54
2023-03-11T18:55:43.420Z,60.43
2023-03-11T18:58:47.208Z,60.32
2023-03-11T19:01:51.645Z,60.93
2023-03-11T19:04:58.584Z,60.93
2023-03-11T19:08:05.528Z,61.19
2023-03-11T19:11:16.074Z,61.52
2023-03-11T19:14:21.935Z,61.81
2023-03-11T19:17:26.344Z,61.81
2023-03-11T19:20:34.035Z,62.24
2023-03-11T19:23:38.917Z,62.17
2023-03-11T19:26:45.664Z,62.54
2023-03-11T19:29:51.563Z,63.41
2023-03-11T19:32:55.776Z,63.61
2023-03-11T19:36:03.570Z,63.60
2023-03-11T19:39:11.978Z,63.42
2023-03-11T19:42:16.057Z,63.50
2023-03-11T19:45:20.714Z,63.61
2023-03-11T19:48:25.281Z,63.56
2023-03-11T19:51:46.372Z,64.11
2023-03-11T19:54:54.356Z,64.28
2023-03-11T19:57:58.030Z,64.56
2023-03-11T20:01:03.988Z,64.22
2023-03-11T20:04:10.068Z,64.92
2023-03-11T20:07:15.194Z,65.48
2023-03-11T20:10:20.928Z,65.96
2023-03-11T20:13:26.892Z,66.12
2023-03-11T20:16:31.540Z,66.91
2023-03-11T20:19:38.065Z,67.26
2023-03-11T20:22:45.918Z,67.77
2023-03-11T20:25:50.106Z,67.79
2023-03-11T20:28:58.136Z,68.13
2023-03-11T20:32:06.310Z,68.32
2023-03-11T20:35:11.209Z,69.49
2023-03-11T20:38:14.923Z,69.22
2023-03-11T20:41:21.426Z,69.35
2023-03-11T20:44:25.691Z,69.16
2023-03-11T20:47:30.437Z,69.98
2023-03-11T20:50:35.616Z,70.12
2023-03-11T20:53:39.746Z,70.35
2023-03-11T20:56:45.029Z,70.52
2023-03-11T20:59:50.042Z,70.81
2023-03-11T21:02:55.523Z,71.48
2023-03-11T21:05:59.569Z,70.90
2023-03-11T21:09:09.069Z,71.43
2023-03-11T21:12:15.787Z,71.47
2023-03-11T21:15:21.661Z,70.99
2023-03-11T21:18:26.156Z,70.39
2023-03-11T21:21:30.399Z,69.84
2023-03-11T21:24:35.113Z,69.36
2023-03-11T21:27:38.481Z,69.66
2023-03-11T21:30:42.369Z,68.89
2023-03-11T21:33:48.250Z,68.80
2023-03-11T22:11:30.450Z,70.55
2023-03-11T22:14:37.567Z,71.26
2023-03-11T22:17:47.469Z,71.29
2023-03-11T22:20:51.105Z,71.20
2023-03-11T22:23:54.193Z,71.59
2023-03-11T22:27:00.748Z,71.38
2023-03-11T22:30:04.849Z,72.03
2023-03-11T22:33:09.453Z,72.51
2023-03-11T22:36:15.147Z,73.29
2023-03-11T22:39:21.962Z,73.43
2023-03-11T22:42:26.273Z,73.93
2023-03-11T22:45:29.626Z,74.15
2023-03-11T22:48:33.959Z,74.55
2023-03-11T22:51:40.094Z,74.91
2023-03-11T22:54:44.441Z,74.84
2023-03-11T22:57:47.734Z,75.18
2023-03-11T23:00:50.987Z,75.52
2023-03-11T23:03:55.818Z,75.89
2023-03-11T23:06:58.971Z,76.26
2023-03-11T23:10:04.262Z,76.20
2023-03-11T23:13:11.098Z,76.35
2023-03-11T23:16:17.368Z,76.10
2023-03-11T23:19:20.759Z,76.66
2023-03-11T23:22:24.900Z,76.84
2023-03-11T23:25:27.978Z,77.05
2023-03-11T23:28:33.971Z,77.14
2023-03-11T23:31:37.139Z,77.20
2023-03-11T23:34:40.504Z,77.55
2023-03-11T23:37:43.670Z,77.41
2023-03-11T23:40:47.341Z,76.89
2023-03-11T23:43:50.845Z,76.86
2023-03-11T23:46:54.612Z,76.82
2023-03-11T23:49:59.185Z,76.59
2023-03-11T23:53:03.048Z,76.22
2023-03-11T23:56:17.063Z,76.32
2023-03-11T23:59:22.210Z,76.37
